createdAt,value
2022-12-31T00:00:38.914Z,4.30
2022-12-31T00:03:09.800Z,4.93
2022-12-31T00:05:37.647Z,3.45
2022-12-31T00:08:05.193Z,20.88
2022-12-31T00:10:39.807Z,6.18
2022-12-31T00:13:12.083Z,4.55
2022-12-31T00:15:41.205Z,4.53
2022-12-31T00:18:09.322Z,4.70
2022-12-31T00:20:42.721Z,5.40
2022-12-31T00:23:11.514Z,4.35
2022-12-31T00:25:38.965Z,4.13
2022-12-31T00:28:06.323Z,5.07
2022-12-31T00:30:34.714Z,3.80
2022-12-31T00:33:01.961Z,7.13
2022-12-31T00:35:29.391Z,5.07
2022-12-31T00:37:56.635Z,3.90
2022-12-31T00:40:23.905Z,4.45
2022-12-31T00:42:51.221Z,4.28
2022-12-31T00:45:18.443Z,3.40
2022-12-31T00:47:45.684Z,4.55
2022-12-31T00:50:13.144Z,3.55
2022-12-31T00:52:40.338Z,5.57
2022-12-31T00:55:08.522Z,4.45
2022-12-31T00:57:35.791Z,4.45
2022-12-31T01:00:04.065Z,5.20
2022-12-31T01:02:31.710Z,5.65
2022-12-31T01:04:58.985Z,5.53
2022-12-31T01:07:26.317Z,5.55
2022-12-31T01:09:53.904Z,5.55
2022-12-31T01:12:21.183Z,6.30
2022-12-31T01:14:48.436Z,4.18
2022-12-31T01:17:17.258Z,3.85
2022-12-31T01:19:44.524Z,4.47
2022-12-31T01:22:11.824Z,4.05
2022-12-31T01:24:39.123Z,3.95
2022-12-31T01:27:06.437Z,3.97
2022-12-31T01:29:33.797Z,3.60
2022-12-31T01:32:01.036Z,3.83
2022-12-31T01:34:28.296Z,3.40
2022-12-31T01:36:55.527Z,13.35
2022-12-31T01:39:22.791Z,7.35
2022-12-31T01:41:50.095Z,5.03
2022-12-31T01:44:26.544Z,2.40
2022-12-31T01:47:04.175Z,2.67
2022-12-31T01:49:44.743Z,2.20
2022-12-31T01:52:32.661Z,2.42
2022-12-31T01:55:16.513Z,3.30
2022-12-31T01:57:48.139Z,2.80
2022-12-31T02:00:16.725Z,2.63
2022-12-31T02:02:44.833Z,2.03
2022-12-31T02:05:49.550Z,4.40
2022-12-31T02:08:18.101Z,2.33
2022-12-31T02:10:48.479Z,4.10
2022-12-31T02:13:16.315Z,2.20
2022-12-31T02:15:50.193Z,2.28
2022-12-31T02:18:39.301Z,2.97
2022-12-31T02:21:28.988Z,2.35
2022-12-31T02:24:55.459Z,2.05
2022-12-31T02:28:32.627Z,1.70
2022-12-31T02:31:18.861Z,1.50
2022-12-31T02:34:05.315Z,1.70
2022-12-31T02:36:42.777Z,2.10
2022-12-31T02:39:13.385Z,2.75
2022-12-31T02:41:53.753Z,1.95
2022-12-31T02:44:32.241Z,2.10
2022-12-31T02:47:32.242Z,2.83
2022-12-31T02:50:31.962Z,2.95
2022-12-31T02:53:41.057Z,3.17
2022-12-31T02:56:28.099Z,2.75
2022-12-31T02:59:41.650Z,2.25
2022-12-31T03:02:16.925Z,2.67
2022-12-31T03:04:56.436Z,2.47
2022-12-31T03:07:33.006Z,1.98
2022-12-31T03:10:01.359Z,2.97
2022-12-31T03:12:48.942Z,3.05
2022-12-31T03:15:33.206Z,4.72
2022-12-31T03:18:17.987Z,2.70
2022-12-31T03:21:09.432Z,3.45
2022-12-31T03:23:50.261Z,2.97
2022-12-31T03:26:17.549Z,2.97
2022-12-31T03:28:48.052Z,3.67
2022-12-31T03:31:16.460Z,2.47
2022-12-31T03:33:43.866Z,3.83
2022-12-31T03:36:15.449Z,3.10
2022-12-31T03:38:42.792Z,3.50
2022-12-31T03:41:11.909Z,3.92
2022-12-31T03:43:39.299Z,3.42
2022-12-31T03:46:06.833Z,3.55
2022-12-31T03:48:34.219Z,4.20
2022-12-31T03:51:01.402Z,4.57
2022-12-31T03:53:28.624Z,8.68
2022-12-31T03:55:55.912Z,7.30
2022-12-31T03:58:23.293Z,7.05
2022-12-31T04:00:51.195Z,7.63
2022-12-31T04:03:19.492Z,8.05
2022-12-31T04:05:55.323Z,9.10
2022-12-31T04:08:23.102Z,5.72
2022-12-31T04:10:50.792Z,8.15
2022-12-31T04:13:18.113Z,8.73
2022-12-31T04:15:45.854Z,10.90
2022-12-31T04:18:14.402Z,9.25
2022-12-31T04:20:41.559Z,11.77
2022-12-31T04:23:08.798Z,10.27
2022-12-31T04:25:36.015Z,11.75
2022-12-31T04:28:03.384Z,7.15
2022-12-31T04:30:30.560Z,12.65
2022-12-31T04:32:57.932Z,5.20
2022-12-31T04:35:25.461Z,4.55
2022-12-31T04:37:52.717Z,5.45
2022-12-31T04:40:19.971Z,4.55
2022-12-31T04:42:47.145Z,6.50
2022-12-31T04:45:14.396Z,5.55
2022-12-31T04:47:41.573Z,5.13
2022-12-31T04:50:10.390Z,6.75
2022-12-31T04:52:42.665Z,5.03
2022-12-31T04:55:11.005Z,5.60
2022-12-31T04:57:38.246Z,4.75
2022-12-31T05:00:06.659Z,6.18
2022-12-31T05:02:34.069Z,5.10
2022-12-31T05:05:01.447Z,4.78
2022-12-31T05:07:28.633Z,6.50
2022-12-31T05:09:55.927Z,6.50
2022-12-31T05:12:23.197Z,6.38
2022-12-31T05:14:50.387Z,5.07
2022-12-31T05:17:17.635Z,4.40
2022-12-31T05:19:44.856Z,5.43
2022-12-31T05:22:30.184Z,4.10
2022-12-31T05:25:01.266Z,5.45
2022-12-31T05:27:31.237Z,4.38
2022-12-31T05:29:59.823Z,6.90
2022-12-31T05:32:27.344Z,6.93
2022-12-31T05:34:54.706Z,6.78
2022-12-31T05:37:22.010Z,6.00
2022-12-31T05:39:49.438Z,8.30
2022-12-31T05:42:16.699Z,6.82
2022-12-31T05:44:44.050Z,6.35
2022-12-31T05:47:11.364Z,9.48
2022-12-31T05:49:38.693Z,8.38
2022-12-31T05:52:06.739Z,7.60
2022-12-31T05:54:34.405Z,8.32
2022-12-31T05:57:01.726Z,5.53
2022-12-31T05:59:30.094Z,4.97
2022-12-31T06:01:57.920Z,5.88
2022-12-31T06:04:25.651Z,6.88
2022-12-31T06:06:53.104Z,5.18
2022-12-31T06:09:21.054Z,7.30
2022-12-31T06:11:49.504Z,4.32
2022-12-31T06:14:17.471Z,7.07
2022-12-31T06:16:44.659Z,7.28
2022-12-31T06:19:12.025Z,5.38
2022-12-31T06:21:39.290Z,4.60
2022-12-31T06:24:07.343Z,5.80
2022-12-31T06:26:34.874Z,4.50
2022-12-31T06:29:04.924Z,4.20
2022-12-31T06:31:32.336Z,2.80
2022-12-31T06:34:00.511Z,3.10
2022-12-31T06:36:27.947Z,2.97
2022-12-31T06:38:55.505Z,5.78
2022-12-31T06:41:22.896Z,3.50
2022-12-31T06:43:50.164Z,2.90
2022-12-31T06:46:21.914Z,1.52
2022-12-31T06:48:49.243Z,2.78
2022-12-31T06:51:21.077Z,2.53
2022-12-31T06:53:51.647Z,2.88
2022-12-31T06:56:33.843Z,2.53
2022-12-31T06:59:03.424Z,4.13
2022-12-31T07:02:09.844Z,2.80
2022-12-31T07:05:22.478Z,2.28
2022-12-31T07:08:31.429Z,2.78
2022-12-31T07:11:52.623Z,3.47
2022-12-31T07:14:46.403Z,2.55
2022-12-31T07:17:43.567Z,2.80
2022-12-31T07:20:16.499Z,5.75
2022-12-31T07:22:46.109Z,4.13
2022-12-31T07:25:18.999Z,8.40
2022-12-31T07:28:35.262Z,5.00
2022-12-31T07:31:33.884Z,2.58
2022-12-31T07:34:36.887Z,3.17
2022-12-31T07:37:34.841Z,2.17
2022-12-31T07:40:42.711Z,3.08
2022-12-31T07:44:00.549Z,3.50
2022-12-31T07:46:44.745Z,3.45
2022-12-31T07:49:14.003Z,6.53
2022-12-31T07:51:42.792Z,4.72
2022-12-31T07:54:14.204Z,4.45
2022-12-31T07:56:43.944Z,4.47
2022-12-31T08:00:01.132Z,3.58
2022-12-31T08:02:53.533Z,6.10
2022-12-31T08:06:09.172Z,4.55
2022-12-31T08:09:39.543Z,3.50
2022-12-31T08:12:09.081Z,5.95
2022-12-31T08:14:47.908Z,3.80
2022-12-31T08:17:18.959Z,5.70
2022-12-31T08:19:47.058Z,4.22
2022-12-31T08:23:01.577Z,4.28
2022-12-31T08:25:56.996Z,2.25
2022-12-31T08:29:19.110Z,3.70
2022-12-31T08:32:21.729Z,2.47
2022-12-31T08:35:31.361Z,3.92
2022-12-31T08:38:39.528Z,4.05
2022-12-31T08:41:43.429Z,5.18
2022-12-31T08:44:34.524Z,3.08
2022-12-31T08:47:35.510Z,2.53
2022-12-31T08:50:07.657Z,5.30
2022-12-31T08:52:35.527Z,2.90
2022-12-31T08:55:03.452Z,5.70
2022-12-31T08:57:50.562Z,3.08
2022-12-31T09:00:20.577Z,2.75
2022-12-31T09:02:59.616Z,4.55
2022-12-31T09:05:43.381Z,4.65
2022-12-31T09:09:01.267Z,1.95
2022-12-31T09:12:12.186Z,5.50
2022-12-31T09:15:06.398Z,6.00
2022-12-31T09:17:51.072Z,4.05
2022-12-31T09:20:42.172Z,5.63
2022-12-31T09:23:12.140Z,3.25
2022-12-31T09:26:21.580Z,2.90
2022-12-31T09:29:14.729Z,3.47
2022-12-31T09:32:34.351Z,3.20
2022-12-31T09:35:25.694Z,4.25
2022-12-31T09:38:31.677Z,3.55
2022-12-31T09:41:44.736Z,2.47
2022-12-31T09:44:55.501Z,4.45
2022-12-31T09:48:28.159Z,3.67
2022-12-31T09:51:12.548Z,4.38
2022-12-31T09:54:15.852Z,4.47
2022-12-31T09:57:53.507Z,3.97
2022-12-31T10:01:21.586Z,3.92
2022-12-31T10:04:56.381Z,5.57
2022-12-31T10:08:00.854Z,2.85
2022-12-31T10:10:50.069Z,6.97
2022-12-31T10:14:49.100Z,4.65
2022-12-31T10:18:14.348Z,2.85
2022-12-31T10:21:02.074Z,3.53
2022-12-31T10:24:08.765Z,4.45
2022-12-31T10:27:14.159Z,2.50
2022-12-31T10:30:11.462Z,5.82
2022-12-31T10:33:10.595Z,9.85
2022-12-31T10:36:19.031Z,4.03
2022-12-31T10:39:28.263Z,7.55
2022-12-31T10:42:40.377Z,5.90
2022-12-31T10:46:22.801Z,5.07
2022-12-31T10:49:22.259Z,4.30
2022-12-31T10:52:41.509Z,8.80
2022-12-31T10:56:00.132Z,5.75
2022-12-31T10:58:42.180Z,9.77
2022-12-31T11:01:30.576Z,5.10
2022-12-31T11:05:05.402Z,4.47
2022-12-31T11:07:41.426Z,6.82
2022-12-31T11:10:42.797Z,6.00
2022-12-31T11:14:26.443Z,6.32
2022-12-31T11:17:21.223Z,6.50
2022-12-31T11:20:29.421Z,6.95
2022-12-31T11:23:30.917Z,5.93
2022-12-31T11:26:46.696Z,8.32
2022-12-31T11:29:57.882Z,6.43
2022-12-31T11:33:14.004Z,6.32
2022-12-31T11:36:30.381Z,5.10
2022-12-31T11:40:01.552Z,4.47
2022-12-31T11:43:04.908Z,5.72
2022-12-31T11:46:16.864Z,6.07
2022-12-31T11:48:52.753Z,6.55
2022-12-31T11:51:52.490Z,5.40
2022-12-31T11:55:25.910Z,5.50
2022-12-31T11:57:54.683Z,6.10
2022-12-31T12:00:26.744Z,3.72
2022-12-31T12:03:06.041Z,5.95
2022-12-31T12:05:35.504Z,11.35
2022-12-31T12:08:03.320Z,5.28
2022-12-31T12:10:52.681Z,6.55
2022-12-31T12:13:28.163Z,7.93
2022-12-31T12:16:02.659Z,8.68
2022-12-31T12:18:47.754Z,6.15
2022-12-31T12:21:25.404Z,5.40
2022-12-31T12:24:16.868Z,4.35
2022-12-31T12:26:45.521Z,8.45
2022-12-31T12:29:26.520Z,6.13
2022-12-31T12:32:25.618Z,5.97
2022-12-31T12:34:53.830Z,4.57
2022-12-31T12:37:34.497Z,5.90
2022-12-31T12:40:22.111Z,7.72
2022-12-31T12:42:52.756Z,5.95
2022-12-31T12:45:36.420Z,4.65
2022-12-31T12:48:31.324Z,5.10
2022-12-31T12:51:00.043Z,7.35
2022-12-31T12:53:54.879Z,6.20
2022-12-31T12:56:47.072Z,4.93
2022-12-31T12:59:51.738Z,5.18
2022-12-31T13:03:07.247Z,5.35
2022-12-31T13:06:26.239Z,5.50
2022-12-31T13:09:55.003Z,4.47
2022-12-31T13:13:22.133Z,6.73
2022-12-31T13:15:47.696Z,6.45
2022-12-31T13:18:54.875Z,8.32
2022-12-31T13:21:59.801Z,4.10
2022-12-31T13:24:52.227Z,5.03
2022-12-31T13:27:45.064Z,7.57
2022-12-31T13:30:36.968Z,9.43
2022-12-31T13:33:26.465Z,7.50
2022-12-31T13:36:02.048Z,6.57
2022-12-31T13:38:34.134Z,5.05
2022-12-31T13:41:45.335Z,6.50
2022-12-31T13:44:32.163Z,5.93
2022-12-31T13:47:27.462Z,4.38
2022-12-31T13:50:26.756Z,6.00
2022-12-31T13:53:07.129Z,7.72
2022-12-31T13:55:56.705Z,6.75
2022-12-31T13:59:20.736Z,7.68
2022-12-31T14:02:18.986Z,6.30
2022-12-31T14:04:58.580Z,8.65
2022-12-31T14:07:57.114Z,9.15
2022-12-31T14:11:24.408Z,9.18
2022-12-31T14:14:54.705Z,11.30
2022-12-31T14:17:47.960Z,5.65
2022-12-31T14:20:52.360Z,6.13
2022-12-31T14:23:59.142Z,6.22
2022-12-31T14:26:50.377Z,9.55
2022-12-31T14:29:29.899Z,10.82
2022-12-31T14:32:48.099Z,11.27
2022-12-31T14:35:55.140Z,8.15
2022-12-31T14:39:02.092Z,10.18
2022-12-31T14:42:12.239Z,8.10
2022-12-31T14:45:00.185Z,8.32
2022-12-31T14:48:21.558Z,10.02
2022-12-31T14:50:50.018Z,8.73
2022-12-31T14:53:28.408Z,8.70
2022-12-31T14:56:29.534Z,13.13
2022-12-31T14:59:02.479Z,11.00
2022-12-31T15:01:30.596Z,9.43
2022-12-31T15:03:58.737Z,11.13
2022-12-31T15:06:47.209Z,6.55
2022-12-31T15:10:21.877Z,8.70
2022-12-31T15:13:19.955Z,9.52
2022-12-31T15:16:07.976Z,14.35
2022-12-31T15:19:16.222Z,9.65
2022-12-31T15:22:33.615Z,10.65
2022-12-31T15:25:01.561Z,15.75
2022-12-31T15:27:38.502Z,7.55
2022-12-31T15:32:46.710Z,10.80
2022-12-31T15:35:20.910Z,7.35
2022-12-31T15:38:11.341Z,5.68
2022-12-31T15:40:51.935Z,7.32
2022-12-31T15:43:25.254Z,5.13
2022-12-31T15:45:56.691Z,6.20
2022-12-31T15:48:55.433Z,7.85
2022-12-31T15:52:01.357Z,9.77
2022-12-31T15:54:43.016Z,8.23
2022-12-31T15:57:29.857Z,8.63
2022-12-31T16:00:06.076Z,7.85
2022-12-31T16:02:33.602Z,11.18
2022-12-31T16:05:01.191Z,18.25
2022-12-31T16:07:29.414Z,7.75
2022-12-31T16:10:04.168Z,9.38
2022-12-31T16:12:44.137Z,9.13
2022-12-31T16:15:26.361Z,5.80
2022-12-31T16:18:20.595Z,8.52
2022-12-31T16:20:51.983Z,11.93
2022-12-31T16:23:30.228Z,10.27
2022-12-31T16:26:05.429Z,6.45
2022-12-31T16:28:35.468Z,6.20
2022-12-31T16:31:16.805Z,7.38
2022-12-31T16:33:46.466Z,8.18
2022-12-31T16:36:24.092Z,8.20
2022-12-31T16:38:52.390Z,7.30
2022-12-31T16:41:22.135Z,11.50
2022-12-31T16:43:50.949Z,6.85
2022-12-31T16:46:30.959Z,7.28
2022-12-31T16:49:21.187Z,7.95
2022-12-31T16:51:49.665Z,18.30
2022-12-31T16:54:44.040Z,7.45
2022-12-31T16:57:24.676Z,10.82
2022-12-31T17:00:04.443Z,9.00
2022-12-31T17:02:47.768Z,11.63
2022-12-31T17:05:26.562Z,8.35
2022-12-31T17:07:53.997Z,15.30
2022-12-31T17:10:34.461Z,9.93
2022-12-31T17:13:30.204Z,9.75
2022-12-31T17:16:00.511Z,11.10
2022-12-31T17:18:38.545Z,9.93
2022-12-31T17:21:11.012Z,9.52
2022-12-31T17:23:41.021Z,15.13
2022-12-31T17:26:23.722Z,16.73
2022-12-31T17:28:55.370Z,15.52
2022-12-31T17:31:57.086Z,12.75
2022-12-31T17:34:31.020Z,9.45
2022-12-31T17:37:14.458Z,7.88
2022-12-31T17:39:55.352Z,14.38
2022-12-31T17:42:38.055Z,13.23
2022-12-31T17:45:22.336Z,10.70
2022-12-31T17:47:53.729Z,18.42
2022-12-31T17:50:28.629Z,21.08
2022-12-31T17:53:12.089Z,12.57
2022-12-31T17:55:45.432Z,11.20
2022-12-31T17:58:30.039Z,10.43
2022-12-31T18:00:58.745Z,9.50
2022-12-31T18:03:26.218Z,10.25
2022-12-31T18:05:54.141Z,14.55
2022-12-31T18:08:21.411Z,10.23
2022-12-31T18:10:48.966Z,12.23
2022-12-31T18:13:23.064Z,10.52
2022-12-31T18:15:50.921Z,9.50
2022-12-31T18:18:25.320Z,10.15
2022-12-31T18:21:07.971Z,8.27
2022-12-31T18:23:46.749Z,6.25
2022-12-31T18:26:21.765Z,9.63
2022-12-31T18:28:50.624Z,10.27
2022-12-31T18:31:22.210Z,7.78
2022-12-31T18:33:52.038Z,6.90
2022-12-31T18:36:22.490Z,5.97
2022-12-31T18:38:50.635Z,10.32
2022-12-31T18:41:27.753Z,13.93
2022-12-31T18:43:55.996Z,10.57
2022-12-31T18:46:25.303Z,13.43
2022-12-31T18:48:52.768Z,10.00
2022-12-31T18:51:31.392Z,13.00
2022-12-31T18:54:01.963Z,11.45
2022-12-31T18:56:29.514Z,7.15
2022-12-31T18:58:56.785Z,10.77
2022-12-31T19:01:33.286Z,12.13
2022-12-31T19:04:27.124Z,11.00
2022-12-31T19:06:57.289Z,10.90
2022-12-31T19:09:44.751Z,8.38
2022-12-31T19:12:15.259Z,9.85
2022-12-31T19:14:42.960Z,11.65
2022-12-31T19:19:36.696Z,9.40
2022-12-31T19:22:03.976Z,12.55
2022-12-31T19:24:31.866Z,10.05
2022-12-31T19:27:01.864Z,9.95
2022-12-31T19:29:29.206Z,17.88
2022-12-31T19:31:58.138Z,7.82
2022-12-31T19:34:25.519Z,11.77
2022-12-31T19:36:52.722Z,8.43
2022-12-31T19:39:21.695Z,14.40
2022-12-31T19:41:56.399Z,14.90
2022-12-31T19:44:26.008Z,9.23
2022-12-31T19:46:53.245Z,12.35
2022-12-31T19:49:20.522Z,7.45
2022-12-31T19:51:47.781Z,9.93
2022-12-31T19:54:15.115Z,10.20
2022-12-31T19:56:42.363Z,10.23
2022-12-31T19:59:11.533Z,7.82
2022-12-31T20:01:39.259Z,8.73
2022-12-31T20:04:06.882Z,8.82
2022-12-31T20:06:34.211Z,27.30
2022-12-31T20:09:03.620Z,29.65
2022-12-31T20:11:31.286Z,11.32
2022-12-31T20:13:58.690Z,8.98
2022-12-31T20:16:33.750Z,12.23
2022-12-31T20:19:00.998Z,10.98
2022-12-31T20:21:29.910Z,9.75
2022-12-31T20:23:57.339Z,8.55
2022-12-31T20:26:26.653Z,9.65
2022-12-31T20:28:54.504Z,8.73
2022-12-31T20:31:26.696Z,11.90
2022-12-31T20:33:55.215Z,12.38
2022-12-31T20:36:23.805Z,13.30
2022-12-31T20:38:51.298Z,11.52
2022-12-31T20:41:22.919Z,11.48
2022-12-31T20:43:53.725Z,10.80
2022-12-31T20:46:28.448Z,16.58
2022-12-31T20:49:00.908Z,14.52
2022-12-31T20:51:31.621Z,9.80
2022-12-31T20:54:07.595Z,12.70
2022-12-31T20:56:40.175Z,11.47
2022-12-31T20:59:10.121Z,12.85
2022-12-31T21:02:18.920Z,12.48
2022-12-31T21:04:26.089Z,13.02
2022-12-31T21:06:53.599Z,13.13
2022-12-31T21:09:20.854Z,8.45
2022-12-31T21:12:06.665Z,13.35
2022-12-31T21:14:33.867Z,9.90
2022-12-31T21:17:02.184Z,9.05
2022-12-31T21:19:29.335Z,9.10
2022-12-31T21:21:56.508Z,11.73
2022-12-31T21:24:24.223Z,10.95
2022-12-31T21:26:56.693Z,13.38
2022-12-31T21:29:23.943Z,9.48
2022-12-31T21:31:51.329Z,7.13
2022-12-31T21:34:18.533Z,9.93
2022-12-31T21:36:45.794Z,14.32
2022-12-31T21:39:13.138Z,9.32
2022-12-31T21:41:52.525Z,9.82
2022-12-31T21:44:28.734Z,9.10
2022-12-31T21:47:39.454Z,12.15
2022-12-31T21:50:08.651Z,12.40
2022-12-31T21:52:36.508Z,12.70
2022-12-31T21:55:24.371Z,10.30
2022-12-31T21:58:24.669Z,10.88
2022-12-31T22:00:58.787Z,12.18
2022-12-31T22:03:29.110Z,11.48
2022-12-31T22:06:12.405Z,10.40
2022-12-31T22:08:42.888Z,13.43
2022-12-31T22:11:13.204Z,10.98
2022-12-31T22:13:41.198Z,8.48
2022-12-31T22:16:09.465Z,10.27
2022-12-31T22:18:40.811Z,15.65
2022-12-31T22:21:19.270Z,11.07
2022-12-31T22:23:53.227Z,11.60
2022-12-31T22:26:28.644Z,8.57
2022-12-31T22:28:59.804Z,9.15
2022-12-31T22:31:32.621Z,12.82
2022-12-31T22:34:00.176Z,14.55
2022-12-31T22:36:27.411Z,11.30
2022-12-31T22:38:58.579Z,8.23
2022-12-31T22:41:28.264Z,13.05
2022-12-31T22:44:03.718Z,11.65
2022-12-31T22:46:33.283Z,14.23
2022-12-31T22:49:03.556Z,12.27
2022-12-31T22:51:56.485Z,16.60
2022-12-31T22:54:19.510Z,17.98
2022-12-31T22:56:46.731Z,10.20
2022-12-31T22:59:14.121Z,24.35
2022-12-31T23:01:41.416Z,16.85
2022-12-31T23:04:09.659Z,126.28
2022-12-31T23:06:43.583Z,31.25
2022-12-31T23:09:37.061Z,60.78
2022-12-31T23:12:09.800Z,57.72
2022-12-31T23:14:56.729Z,47.53
2022-12-31T23:17:46.240Z,48.37
2022-12-31T23:20:38.329Z,78.22
2022-12-31T23:23:11.507Z,47.75
2022-12-31T23:25:52.835Z,40.28
2022-12-31T23:28:25.793Z,30.23
2022-12-31T23:30:53.869Z,27.77
2022-12-31T23:33:25.898Z,23.67
2022-12-31T23:36:06.991Z,33.67
2022-12-31T23:38:34.320Z,24.85
2022-12-31T23:41:11.647Z,35.17
2022-12-31T23:43:38.932Z,43.30
2022-12-31T23:46:06.486Z,73.90
2022-12-31T23:48:33.894Z,43.78
2022-12-31T23:51:01.127Z,31.30
2022-12-31T23:53:28.371Z,52.28
2022-12-31T23:55:55.705Z,42.33
2022-12-31T23:58:22.948Z,29.27
